Hiram, Maine
Current Conditions -  °F | °C
As of 3:54 PM on Sunday 21 Dec 2014 (Local Time) from KIZG Reporting Station
Overcast Overcast  
Wind Chill: 29°   Ceiling: 8000
Heat Index: 29°   Visibility: 10mi
Dew Point: 19°   Wind: 0mph
Humidity: 67%   Direction: NA
Pressure: 30.32"   Gusts: NA
Location:  43.81°N, 70.87°W
Report Text: KIZG 212054Z AUTO 00000KT 10SM OVC080 M02/M07 A3032 RMK AO2 SLP275 T10171072 53000
Loading
Personal Weather Stations






























Interactive Weather Map New forecast layout! Learn more

10-Day Weather Forecast

Advertisements
Track Severe Weather on mobile